CheckWX is a tool to help pilots better visualize weather data.  It is not intended as a substitute for an official pre-flight weather briefing.

23:55:30 UTC

TJPS TAF
Mercedita Airport
Ponce, Puerto Rico, USA
TJPS 042339Z 0500/0524 17008KT P6SM FEW035 BKN060 BKN080 FM050200 VRB06KT P6SM FEW035 FEW080 FM051500 16011KT P6SM SCT040 AMD NOT SKED TIL 050200

Apr-5@
00:00 UTC

Apr-5 @ 00:00 UTC

Apr-5@
02:00 UTC

Apr-5 @ 02:00 UTC

TAF TJPS 042339Z 0500/0524 17008KT P6SM FEW035 BKN060 BKN080

Expired

Wind
  • 170° at 8 KTS
Cloud Levels
  • Few at 3,500' AGL
  • Broken at 6,000' AGL
  • Broken at 8,000' AGL

Apr-5@
02:00 UTC

Apr-5 @ 02:00 UTC

Apr-5@
15:00 UTC

Apr-5 @ 15:00 UTC

FM050200 VRB06KT P6SM FEW035 FEW080

Expired

Wind
  • Variable at 6 KTS
Cloud Levels
  • Few at 3,500' AGL
  • Few at 8,000' AGL

Apr-5@
15:00 UTC

Apr-5 @ 15:00 UTC

Apr-6@
00:00 UTC

Apr-6 @ 00:00 UTC

FM051500 16011KT P6SM SCT040 AMD NOT SKED TIL 050200

From

From Standard forecast or significant change

Wind
  • 160° at 11 KTS
Cloud Levels
  • Scattered at 4,000' AGL